Flight Track Log - Related Links

Times and Time Zones

All times are in EDT time to prevent confusion due to time zone crossing. See the GLA154 flight status page for this flight to view local times or setup timezone preferences in your user account.

Time Position Orientation Groundspeed Altitude Reporting Facility
EDT Latitude Longitude Course Direction KTS MPH feet Rate Location/Type
Thu 09:47:54 AM 34.6750 -112.4006 321° Northwest 155 178 6,200  Level Los Angeles Center
Thu 09:48:53 AM 34.7006 -112.4439 306° West 181 208 8,400 2,000 Climbing Albuquerque Center
Thu 09:49:54 AM 34.7100 -112.5050 281° West 186 214 10,200 1,869 Climbing Albuquerque Center
Thu 09:50:55 AM 34.7367 -112.5533 304° West 177 204 12,200 1,967 Climbing Albuquerque Center
Thu 09:51:56 AM 34.7481 -112.6119 283° West 177 204 14,200 1,659 Climbing Albuquerque Center
Thu 09:52:58 AM 34.7592 -112.6675 284° West 173 199 15,600 829 Climbing Albuquerque Center
Thu 09:53:00 AM 34.9384 -112.7217 321° Northwest  Level FlightAware Approximate
Thu 09:53:59 AM 34.7875 -112.7381 296° West 190 219 15,900  Level Albuquerque Center
Thu 09:55:00 AM 34.8144 -112.8069 295° West 216 249 16,000  Climbing Albuquerque Center
Thu 09:56:01 AM 34.8433 -112.8756 297° West 225 259 15,900 -49 Descending Albuquerque Center
Thu 09:57:02 AM 34.8717 -112.9444 297° West 226 260 15,900  Level Albuquerque Center
Thu 09:58:04 AM 34.8992 -113.0133 296° West 226 260 15,900  Level Albuquerque Center
Thu 09:59:05 AM 34.9281 -113.0808 298° West 225 259 15,900  Level Albuquerque Center
Thu 10:00:06 AM 34.9569 -113.1500 297° West 227 261 15,900  Level Albuquerque Center
Thu 10:01:08 AM 34.9850 -113.2189 296° West 227 261 15,900  Level Albuquerque Center
Thu 10:02:09 AM 35.0128 -113.2894 296° West 230 265 15,900  Level Albuquerque Center
Thu 10:03:10 AM 35.0406 -113.3619 295° West 234 269 15,900  Level Albuquerque Center
Thu 10:04:12 AM 35.0697 -113.4361 296° West 240 276 15,900 -878 Level Albuquerque Center
Thu 10:05:13 AM 35.1036 -113.5192 297° West 232 267 14,100 -1,623 Descending Albuquerque Center
Thu 10:06:14 AM 35.1292 -113.5872 295° West 224 258 12,600 -1,463 Descending Albuquerque Center
Thu 10:07:16 AM 35.1539 -113.6567 294° West 223 257 11,100 -1,415 Descending Albuquerque Center
Thu 10:08:17 AM 35.1806 -113.7275 295° West 227 261 9,700 -1,377 Descending Albuquerque Center

Login

Don't have an account? Register now (free) for customized features, flight alerts, and more!